KPNE/PNE METAR and TAF weather

Enter ICAO airport designator
Station Type Date Time Source
KPNE METAR 2018/12/17 02:07 UTC NOAA

KPNE 170207Z 34012KT 6SM BR BKN011 BKN014 OVC035 04/02 A2984 RMK AO2 T00440022


Station Type Date Time Source
KPNE Decoded METAR 2018/12/17 02:07 UTC NOAA

N.E. PHILADELPHIA AIRPORT, PA, United States (KPNE) 40-05N 075-01W 28M
Dec 16, 2018 - 09:07 PM EST / 2018.12.17 0207 UTC
Wind: from the NNW (340 degrees) at 14 MPH (12 KT):0
Visibility: 6 mile(s):0
Sky conditions: overcast
Weather: mist
Temperature: 39.9 F (4.4 C)
Dew Point: 36.0 F (2.2 C)
Relative Humidity: 85%
Pressure (altimeter): 29.84 in. Hg (1010 hPa)
ob: KPNE 170207Z 34012KT 6SM BR BKN011 BKN014 OVC035 04/02 A2984 RMK AO2 T00440022
cycle: 2

Station Type Date Time Source
KPNE TAF 2018/12/17 02:30 UTC NOAA

TAF
AMD KPNE 170228Z 1702/1724 34012KT P6SM BKN015 OVC025
TEMPO 1702/1705 5SM -DZ BR
FM170600 34008KT P6SM OVC025
FM170800 31006KT P6SM BKN035
FM171500 30010G20KT P6SM SCT040
FM171800 31017G30KT P6SM BKN040


Example: see airport list